Time;durP1;ratioP1;P1;durP2;ratioP2;P2;SDS_P1;SDS_P2;PMS_P1;PMS_P2;Temp;Humidity;BMP_temperature;BMP_pressure;BME280_temperature;BME280_humidity;BME280_pressure;Samples;Min_cycle;Max_cycle;Signal;HPM_P1;HPM_P2
2024/01/21 00:01:40;;;;;;;14.38;9.27;;;;;;;-4.99;96.61;102426.91;7397354;19;20102;-67
2024/01/21 00:04:09;;;;;;;15.63;9.70;;;;;;;-5.05;96.89;102413.69;7395499;19;20098;-67
2024/01/21 00:06:37;;;;;;;12.27;8.13;;;;;;;-5.02;96.23;102416.47;7395351;19;20365;-67
2024/01/21 00:09:06;;;;;;;14.75;8.95;;;;;;;-5.03;96.96;102420.72;7394968;19;20081;-67
2024/01/21 00:11:34;;;;;;;15.77;9.07;;;;;;;-5.03;97.22;102427.50;7396473;19;20436;-67
2024/01/21 00:14:03;;;;;;;13.88;9.40;;;;;;;-5.08;96.90;102420.41;7395164;19;20015;-67
2024/01/21 00:16:34;;;;;;;14.68;9.50;;;;;;;-5.11;95.77;102417.63;7396404;19;20074;-67
2024/01/21 00:19:02;;;;;;;17.40;10.20;;;;;;;-5.13;96.63;102410.63;7396378;19;20423;-67
2024/01/21 00:21:31;;;;;;;15.10;9.70;;;;;;;-5.13;97.56;102400.38;7396309;19;20074;-67
2024/01/21 00:24:00;;;;;;;17.83;10.40;;;;;;;-5.15;97.57;102402.84;7394880;19;20434;-67
2024/01/21 00:26:28;;;;;;;16.30;10.18;;;;;;;-5.16;96.91;102401.06;7395379;19;20039;-67
2024/01/21 00:29:00;;;;;;;15.30;9.05;;;;;;;-5.19;95.62;102400.84;7396098;19;20007;-68
2024/01/21 00:31:28;;;;;;;15.45;10.25;;;;;;;-5.20;96.18;102401.63;7394831;19;20011;-67
2024/01/21 00:33:59;;;;;;;15.02;9.45;;;;;;;-5.22;96.54;102405.75;7394655;19;20090;-67
2024/01/21 00:36:28;;;;;;;14.77;10.48;;;;;;;-5.25;92.68;102408.09;7395652;19;20069;-67
2024/01/21 00:38:57;;;;;;;16.15;9.50;;;;;;;-5.31;93.80;102403.44;7394318;19;20011;-67
2024/01/21 00:41:25;;;;;;;15.70;9.73;;;;;;;-5.26;96.34;102412.34;7395327;19;20073;-67
2024/01/21 00:43:53;;;;;;;15.55;10.02;;;;;;;-5.27;94.86;102414.78;7393848;19;20074;-67
2024/01/21 00:46:22;;;;;;;18.05;10.43;;;;;;;-5.28;95.81;102400.22;7394993;19;20083;-67
2024/01/21 00:48:50;;;;;;;15.00;10.57;;;;;;;-5.32;95.91;102398.22;7393423;19;20083;-67
2024/01/21 00:51:21;;;;;;;15.07;9.65;;;;;;;-5.33;95.98;102393.88;7393791;19;20367;-67
2024/01/21 00:53:50;;;;;;;14.55;9.68;;;;;;;-5.34;96.61;102397.25;7394076;19;20090;-69
2024/01/21 00:56:18;;;;;;;12.65;9.40;;;;;;;-5.34;96.77;102395.56;7395044;19;20070;-68
2024/01/21 00:58:46;;;;;;;14.20;8.65;;;;;;;-5.36;97.06;102391.13;7393083;19;20078;-68
2024/01/21 01:01:15;;;;;;;13.27;9.30;;;;;;;-5.37;96.87;102384.22;7394720;19;20421;-68
2024/01/21 01:03:44;;;;;;;14.55;9.63;;;;;;;-5.40;96.81;102387.44;7393278;19;20082;-68
2024/01/21 01:06:12;;;;;;;15.35;8.80;;;;;;;-5.42;97.33;102384.78;7394599;19;20078;-68
2024/01/21 01:08:43;;;;;;;14.23;8.82;;;;;;;-5.43;96.59;102383.00;7392673;19;20485;-68
2024/01/21 01:11:12;;;;;;;16.63;8.95;;;;;;;-5.45;97.59;102386.25;7395354;19;20031;-68
2024/01/21 01:13:40;;;;;;;16.80;9.00;;;;;;;-5.46;97.30;102387.94;7393710;19;20077;-68
2024/01/21 01:16:09;;;;;;;15.95;10.15;;;;;;;-5.47;96.52;102388.69;7395137;19;20078;-70
2024/01/21 01:18:38;;;;;;;15.48;10.00;;;;;;;-5.48;96.41;102384.38;7394748;19;20082;-70
2024/01/21 01:21:07;;;;;;;16.52;10.10;;;;;;;-5.47;97.33;102381.03;7394682;19;20070;-69
2024/01/21 01:23:35;;;;;;;15.30;9.85;;;;;;;-5.45;97.54;102379.44;7393416;19;20092;-70
2024/01/21 01:26:08;;;;;;;14.82;9.70;;;;;;;-5.43;97.21;102379.56;7394264;19;20070;-72
2024/01/21 01:28:37;;;;;;;18.35;9.35;;;;;;;-5.45;96.50;102366.66;7394193;19;20537;-73
2024/01/21 01:31:05;;;;;;;17.63;9.77;;;;;;;-5.42;97.75;102372.00;7394461;19;20043;-69
2024/01/21 01:33:34;;;;;;;14.52;9.15;;;;;;;-5.42;94.94;102373.66;7393326;19;20022;-67
2024/01/21 01:36:02;;;;;;;15.88;10.02;;;;;;;-5.43;96.73;102383.00;7394176;19;20078;-68
2024/01/21 01:38:31;;;;;;;17.42;10.27;;;;;;;-5.45;97.63;102371.78;7393735;19;20014;-69
2024/01/21 01:40:59;;;;;;;15.15;10.05;;;;;;;-5.50;97.77;102369.69;7391828;19;20415;-67
2024/01/21 01:43:30;;;;;;;17.40;9.93;;;;;;;-5.48;96.23;102379.25;7391904;19;20075;-69
2024/01/21 01:46:00;;;;;;;14.73;9.55;;;;;;;-5.49;96.94;102376.59;7394154;19;20074;-69
2024/01/21 01:48:29;;;;;;;15.48;9.52;;;;;;;-5.51;98.04;102373.94;7393525;19;20387;-67
2024/01/21 01:51:02;;;;;;;16.45;9.77;;;;;;;-5.52;98.33;102384.03;7393946;19;20021;-67
2024/01/21 01:53:32;;;;;;;16.38;9.85;;;;;;;-5.53;98.38;102385.72;7392806;19;20010;-67
2024/01/21 01:56:02;;;;;;;16.00;9.73;;;;;;;-5.55;97.58;102382.16;7393469;19;20082;-67
2024/01/21 01:58:34;;;;;;;14.20;9.40;;;;;;;-5.58;97.09;102379.38;7393643;19;20011;-67
2024/01/21 02:01:03;;;;;;;16.38;9.65;;;;;;;-5.60;96.22;102379.28;7400694;19;20031;-69
2024/01/21 02:03:31;;;;;;;15.27;9.57;;;;;;;-5.61;96.38;102376.59;7399440;19;20014;-67
2024/01/21 02:06:00;;;;;;;14.18;9.02;;;;;;;-5.63;97.07;102373.94;7400777;19;20038;-67
2024/01/21 02:08:28;;;;;;;16.15;9.45;;;;;;;-5.64;98.03;102368.72;7398169;19;20087;-67
2024/01/21 02:10:56;;;;;;;15.63;8.75;;;;;;;-5.68;95.05;102366.75;7400603;19;20082;-68
2024/01/21 02:13:25;;;;;;;18.73;9.75;;;;;;;-5.70;94.42;102364.03;7398640;19;20019;-67
2024/01/21 02:15:58;;;;;;;14.35;9.05;;;;;;;-5.72;95.85;102357.97;7400131;19;20082;-67
2024/01/21 02:18:27;;;;;;;16.27;9.48;;;;;;;-5.73;97.02;102356.19;7400229;19;20015;-69
2024/01/21 02:20:55;;;;;;;14.38;8.95;;;;;;;-5.73;97.85;102358.72;7400334;19;20552;-67
2024/01/21 02:23:26;;;;;;;13.73;9.00;;;;;;;-5.76;97.35;102351.72;7399027;19;20035;-68
2024/01/21 02:25:55;;;;;;;15.55;9.93;;;;;;;-5.78;97.97;102345.63;7398124;19;20025;-68
2024/01/21 02:28:23;;;;;;;14.45;9.40;;;;;;;-5.77;98.43;102346.53;7397785;19;20078;-69
2024/01/21 02:30:51;;;;;;;16.20;9.68;;;;;;;-5.78;98.06;102347.28;7400024;19;20018;-68
2024/01/21 02:33:20;;;;;;;12.05;8.30;;;;;;;-5.80;97.33;102343.72;7398796;19;20014;-69
2024/01/21 02:35:48;;;;;;;14.52;9.20;;;;;;;-5.81;98.79;102340.28;7399862;19;20070;-69
2024/01/21 02:38:17;;;;;;;14.70;8.85;;;;;;;-5.82;97.76;102345.31;7399624;19;20078;-69
2024/01/21 02:40:54;;;;;;;15.38;9.38;;;;;;;-5.86;96.76;102333.06;7399182;19;20504;-69
2024/01/21 02:43:23;;;;;;;14.32;9.00;;;;;;;-5.86;96.30;102343.28;7396748;19;20074;-69
2024/01/21 02:45:51;;;;;;;15.18;9.45;;;;;;;-5.89;97.13;102338.84;7396920;19;20015;-67
2024/01/21 02:48:19;;;;;;;15.68;9.70;;;;;;;-5.91;96.81;102333.63;7396931;19;20074;-69
2024/01/21 02:50:48;;;;;;;14.30;9.20;;;;;;;-5.91;96.26;102330.22;7398878;19;20015;-69
2024/01/21 02:53:16;;;;;;;15.85;8.50;;;;;;;-5.92;95.53;102333.53;7397821;19;20545;-67
2024/01/21 02:55:45;;;;;;;13.13;9.40;;;;;;;-5.95;96.66;102339.31;7397012;19;20074;-67
2024/01/21 02:58:16;;;;;;;16.10;9.32;;;;;;;-5.96;95.88;102329.00;7398944;19;20082;-68
2024/01/21 03:00:44;;;;;;;14.38;9.55;;;;;;;-5.97;96.65;102340.88;7399679;19;20017;-67
2024/01/21 03:03:13;;;;;;;13.38;8.88;;;;;;;-5.98;95.64;102335.69;7398069;19;20501;-67
2024/01/21 03:05:41;;;;;;;14.23;9.13;;;;;;;-6.00;94.82;102327.91;7398773;19;20017;-67
2024/01/21 03:08:10;;;;;;;17.23;9.90;;;;;;;-6.01;95.37;102326.13;7396572;19;20074;-67
2024/01/21 03:10:38;;;;;;;15.07;9.10;;;;;;;-6.00;94.30;102329.56;7397526;19;20014;-67
2024/01/21 03:13:07;;;;;;;13.57;9.10;;;;;;;-6.02;94.51;102321.78;7397251;19;20022;-68
2024/01/21 03:15:38;;;;;;;15.77;10.35;;;;;;;-6.02;94.53;102315.81;7396051;19;20074;-67
2024/01/21 03:18:07;;;;;;;15.70;10.35;;;;;;;-6.02;93.95;102319.25;7396759;19;20018;-67
2024/01/21 03:20:35;;;;;;;18.85;11.32;;;;;;;-6.02;94.35;102313.25;7398326;19;20014;-67
2024/01/21 03:23:04;;;;;;;16.45;11.02;;;;;;;-6.02;93.91;102311.56;7397139;19;20092;-67
2024/01/21 03:25:32;;;;;;;15.48;9.60;;;;;;;-6.01;93.11;102315.91;7398163;19;20022;-67
2024/01/21 03:28:01;;;;;;;16.52;9.25;;;;;;;-6.00;93.94;102312.59;7396834;19;20086;-67
2024/01/21 03:30:29;;;;;;;15.85;8.70;;;;;;;-5.99;93.56;102311.81;7397912;19;20018;-67
2024/01/21 03:33:00;;;;;;;15.13;8.85;;;;;;;-5.99;93.31;102316.94;7396796;19;20415;-67
2024/01/21 03:35:28;;;;;;;13.68;9.88;;;;;;;-5.98;94.30;102317.78;7397906;19;20066;-67
2024/01/21 03:37:57;;;;;;;13.32;8.65;;;;;;;-5.96;93.06;102314.53;7397334;19;20078;-67
2024/01/21 03:40:25;;;;;;;14.98;8.63;;;;;;;-5.92;93.82;102325.88;7397233;19;20422;-67
2024/01/21 03:42:54;;;;;;;16.95;9.50;;;;;;;-5.91;92.42;102323.41;7396874;19;20093;-67
2024/01/21 03:45:22;;;;;;;12.98;9.18;;;;;;;-5.87;91.73;102326.19;7397347;19;20083;-67
2024/01/21 03:47:50;;;;;;;15.13;9.27;;;;;;;-5.89;93.54;102321.88;7396441;19;20015;-67
2024/01/21 03:50:22;;;;;;;14.45;9.00;;;;;;;-5.83;93.54;102321.41;7397351;19;20347;-67
2024/01/21 03:52:50;;;;;;;14.60;8.73;;;;;;;-5.82;91.58;102315.50;7396514;19;20433;-67
2024/01/21 03:55:19;;;;;;;17.15;9.45;;;;;;;-5.76;93.35;102330.41;7394932;19;20035;-67
2024/01/21 03:57:48;;;;;;;13.88;9.30;;;;;;;-5.76;91.67;102327.84;7396638;19;20537;-68
2024/01/21 04:00:17;;;;;;;14.05;9.43;;;;;;;-5.75;91.87;102316.81;7396951;19;20099;-68
2024/01/21 04:02:46;;;;;;;14.05;8.40;;;;;;;-5.71;89.90;102329.06;7396438;19;20018;-68
2024/01/21 04:05:14;;;;;;;12.77;8.35;;;;;;;-5.68;92.23;102325.81;7396626;19;20074;-68
2024/01/21 04:07:45;;;;;;;15.30;8.88;;;;;;;-5.65;91.68;102329.50;7395647;19;20556;-68
2024/01/21 04:10:14;;;;;;;14.30;8.27;;;;;;;-5.64;91.98;102320.13;7397527;19;20078;-67
2024/01/21 04:12:42;;;;;;;16.80;9.43;;;;;;;-5.64;92.46;102308.22;7394339;19;20014;-68
2024/01/21 04:15:11;;;;;;;15.52;9.15;;;;;;;-5.62;90.92;102300.69;7396669;19;20472;-68
2024/01/21 04:17:39;;;;;;;15.30;8.75;;;;;;;-5.60;91.32;102291.44;7396465;19;20082;-68
2024/01/21 04:20:10;;;;;;;13.38;9.05;;;;;;;-5.59;91.77;102288.97;7396486;19;20086;-68
2024/01/21 04:22:39;;;;;;;13.90;8.43;;;;;;;-5.58;91.25;102285.63;7394005;19;20006;-68
2024/01/21 04:25:10;;;;;;;15.02;9.75;;;;;;;-5.56;91.65;102290.84;7396282;19;20082;-68
2024/01/21 04:27:39;;;;;;;16.50;9.38;;;;;;;-5.53;91.10;102287.63;7394427;19;20010;-68
2024/01/21 04:30:15;;;;;;;14.35;8.77;;;;;;;-5.52;92.79;102282.63;7396022;19;20074;-68
2024/01/21 04:32:43;;;;;;;15.93;8.63;;;;;;;-5.50;91.40;102287.84;7396001;19;20090;-68
2024/01/21 04:35:12;;;;;;;16.15;9.50;;;;;;;-5.48;92.42;102291.41;7395493;19;20510;-68
2024/01/21 04:37:40;;;;;;;17.60;9.27;;;;;;;-5.51;93.36;102275.84;7396694;19;20015;-68
2024/01/21 04:40:13;;;;;;;17.05;9.60;;;;;;;-5.44;93.71;102284.03;7395657;19;20094;-68
2024/01/21 04:42:42;;;;;;;16.15;9.85;;;;;;;-5.42;92.27;102287.59;7394919;19;20537;-68
2024/01/21 04:45:14;;;;;;;25.10;13.43;;;;;;;-5.37;93.51;102287.00;7393539;19;20405;-68
2024/01/21 04:47:42;;;;;;;15.35;10.48;;;;;;;-5.37;92.94;102285.34;7395433;19;20023;-68
2024/01/21 04:50:12;;;;;;;15.98;10.48;;;;;;;-5.32;96.41;102280.53;7395475;19;20082;-68
2024/01/21 04:52:40;;;;;;;13.70;8.88;;;;;;;-5.30;94.97;102282.41;7394757;19;20859;-68
2024/01/21 04:55:12;;;;;;;13.77;8.93;;;;;;;-5.26;94.90;102278.38;7393833;19;20031;-67
2024/01/21 04:57:41;;;;;;;14.88;10.00;;;;;;;-5.22;94.29;102279.47;7395616;19;20074;-68
2024/01/21 05:00:11;;;;;;;13.93;9.75;;;;;;;-5.19;94.46;102283.13;7395087;19;20018;-67
2024/01/21 05:02:40;;;;;;;13.85;9.75;;;;;;;-5.16;95.01;102275.66;7394337;19;20432;-68
2024/01/21 05:05:09;;;;;;;18.20;9.77;;;;;;;-5.11;94.34;102265.72;7395179;19;20019;-68
2024/01/21 05:07:37;;;;;;;14.10;8.48;;;;;;;-5.07;95.34;102267.69;7394611;19;20074;-68
2024/01/21 05:10:07;;;;;;;12.15;8.23;;;;;;;-5.03;94.09;102271.34;7394509;19;20491;-67
2024/01/21 05:12:39;;;;;;;13.75;9.10;;;;;;;-5.05;93.59;102260.13;7394162;19;20497;-68
2024/01/21 05:15:08;;;;;;;15.50;9.23;;;;;;;-4.97;95.16;102264.09;7395297;19;20078;-68
2024/01/21 05:17:37;;;;;;;17.60;11.55;;;;;;;-4.92;96.53;102267.84;7394431;19;20423;-68
2024/01/21 05:20:08;;;;;;;23.15;12.95;;;;;;;-4.89;94.97;102268.06;7394626;19;20015;-67
2024/01/21 05:22:36;;;;;;;18.95;11.30;;;;;;;-4.86;96.24;102281.03;7394667;19;20007;-68
2024/01/21 05:25:06;;;;;;;26.08;15.48;;;;;;;-4.84;95.48;102276.00;7392319;19;20078;-67
2024/01/21 05:27:34;;;;;;;20.63;11.05;;;;;;;-4.81;95.97;102273.69;7392470;19;20011;-68
2024/01/21 05:30:06;;;;;;;18.30;10.38;;;;;;;-4.79;96.96;102266.97;7394201;19;20464;-68
2024/01/21 05:32:34;;;;;;;16.95;9.13;;;;;;;-4.76;95.10;102275.72;7392435;19;20015;-68
2024/01/21 05:35:03;;;;;;;14.80;8.88;;;;;;;-4.75;95.37;102274.94;7397991;19;20027;-67
2024/01/21 05:37:31;;;;;;;18.13;8.90;;;;;;;-4.73;93.02;102271.63;7401730;19;20015;-67
2024/01/21 05:40:00;;;;;;;13.80;8.02;;;;;;;-4.70;95.43;102266.69;7401687;19;20014;-67
2024/01/21 05:42:28;;;;;;;11.95;7.30;;;;;;;-4.69;94.45;102268.44;7401330;19;20078;-68
2024/01/21 05:44:56;;;;;;;10.40;7.35;;;;;;;-4.68;93.58;102265.97;7401354;19;20159;-67
2024/01/21 05:47:27;;;;;;;11.45;7.47;;;;;;;-4.68;94.60;102255.75;7401336;19;20415;-67
2024/01/21 05:49:56;;;;;;;12.68;8.02;;;;;;;-4.65;94.50;102255.97;7401597;19;20078;-68
2024/01/21 05:52:24;;;;;;;12.82;8.02;;;;;;;-4.63;94.69;102256.03;7400988;19;20027;-68
2024/01/21 05:54:53;;;;;;;11.38;7.38;;;;;;;-4.63;94.72;102245.81;7399674;19;20090;-68
2024/01/21 05:57:21;;;;;;;14.82;7.80;;;;;;;-4.62;92.38;102242.47;7398035;19;20074;-67
2024/01/21 05:59:49;;;;;;;13.80;8.15;;;;;;;-4.62;94.14;102238.22;7401105;19;20028;-68
2024/01/21 06:02:18;;;;;;;16.35;7.97;;;;;;;-4.60;92.92;102230.63;7400917;19;20011;-67
2024/01/21 06:04:50;;;;;;;13.98;7.95;;;;;;;-4.59;94.01;102237.53;7398140;19;20081;-67
2024/01/21 06:07:25;;;;;;;19.40;8.32;;;;;;;-4.57;93.27;102228.28;7400689;19;20343;-67
2024/01/21 06:09:53;;;;;;;12.65;6.70;;;;;;;-4.57;94.25;102228.28;7398460;19;20090;-68
2024/01/21 06:12:22;;;;;;;10.38;7.00;;;;;;;-4.56;93.44;102235.16;7400288;19;20426;-68
2024/01/21 06:14:50;;;;;;;20.80;11.02;;;;;;;-4.56;94.04;102236.81;7400534;19;20069;-68
2024/01/21 06:17:19;;;;;;;11.93;7.30;;;;;;;-4.55;92.20;102236.03;7397522;19;20490;-68
2024/01/21 06:19:50;;;;;;;11.93;7.10;;;;;;;-4.55;93.27;102241.16;7400420;19;20011;-68
2024/01/21 06:22:18;;;;;;;12.48;7.13;;;;;;;-4.55;91.93;102236.91;7397610;19;20007;-68
2024/01/21 06:24:47;;;;;;;12.05;6.93;;;;;;;-4.55;92.90;102221.53;7400336;19;20074;-68
2024/01/21 06:27:15;;;;;;;10.77;6.57;;;;;;;-4.54;93.01;102220.75;7400517;19;20089;-67
2024/01/21 06:29:46;;;;;;;12.82;7.18;;;;;;;-4.52;93.08;102223.44;7398041;19;20086;-68
2024/01/21 06:32:14;;;;;;;11.73;6.60;;;;;;;-4.50;93.83;102222.75;7397588;19;20022;-67
2024/01/21 06:34:43;;;;;;;10.20;6.40;;;;;;;-4.47;93.19;102229.75;7397004;19;20434;-68
2024/01/21 06:37:20;;;;;;;12.45;7.05;;;;;;;-4.45;92.35;102230.72;7397409;19;20079;-68
2024/01/21 06:39:48;;;;;;;12.55;7.60;;;;;;;-4.43;93.19;102231.72;7400174;19;20090;-69
2024/01/21 06:42:17;;;;;;;13.50;6.35;;;;;;;-4.41;92.26;102230.09;7399260;19;20078;-67
2024/01/21 06:44:45;;;;;;;13.98;7.93;;;;;;;-4.38;92.65;102226.88;7397040;19;20430;-68
2024/01/21 06:47:14;;;;;;;43.38;18.27;;;;;;;-4.36;91.68;102227.84;7394590;19;20082;-67
2024/01/21 06:49:42;;;;;;;112.47;41.85;;;;;;;-4.32;92.92;102220.47;7397362;19;20070;-67
2024/01/21 06:52:10;;;;;;;25.42;12.00;;;;;;;-4.30;92.65;102223.97;7399187;19;20411;-67
2024/01/21 06:54:42;;;;;;;11.05;6.80;;;;;;;-4.28;93.55;102222.41;7396490;19;20085;-67
2024/01/21 06:57:10;;;;;;;13.55;8.32;;;;;;;-4.24;92.90;102226.06;7396564;19;20485;-68
2024/01/21 06:59:39;;;;;;;11.75;7.40;;;;;;;-4.22;92.40;102213.34;7398709;19;20422;-68
2024/01/21 07:02:07;;;;;;;11.82;7.90;;;;;;;-4.21;90.33;102210.00;7398922;19;20018;-67
2024/01/21 07:04:36;;;;;;;11.38;8.55;;;;;;;-4.19;90.66;102204.16;7396556;19;20015;-68
2024/01/21 07:07:04;;;;;;;10.20;6.95;;;;;;;-4.17;92.55;102186.31;7398301;19;20541;-68
2024/01/21 07:09:33;;;;;;;13.20;7.55;;;;;;;-4.15;90.06;102197.56;7396771;19;20516;-67
2024/01/21 07:12:04;;;;;;;10.25;6.35;;;;;;;-4.14;88.96;102184.81;7398531;19;20070;-68
2024/01/21 07:14:34;;;;;;;8.32;5.80;;;;;;;-4.11;88.97;102195.28;7396514;19;20011;-68
2024/01/21 07:17:03;;;;;;;9.35;5.55;;;;;;;-4.12;88.74;102187.47;7398516;19;20038;-68
2024/01/21 07:19:32;;;;;;;9.82;5.50;;;;;;;-4.07;88.87;102192.91;7397993;19;20433;-68
2024/01/21 07:22:00;;;;;;;8.68;5.45;;;;;;;-4.01;89.25;102200.97;7398012;19;20046;-67
2024/01/21 07:24:29;;;;;;;8.95;5.25;;;;;;;-3.96;89.27;102202.13;7395779;19;20481;-67
2024/01/21 07:26:57;;;;;;;11.38;5.53;;;;;;;-3.93;89.35;102186.91;7397712;19;20435;-68
2024/01/21 07:29:28;;;;;;;7.78;5.00;;;;;;;-3.90;86.77;102191.34;7396728;19;20074;-67
2024/01/21 07:31:57;;;;;;;9.57;5.45;;;;;;;-3.86;88.75;102175.38;7397485;19;20066;-67
2024/01/21 07:34:25;;;;;;;14.70;5.55;;;;;;;-3.82;89.40;102178.19;7395640;19;20435;-67
2024/01/21 07:36:54;;;;;;;8.30;4.80;;;;;;;-3.79;85.41;102180.97;7398246;19;20062;-68
2024/01/21 07:39:22;;;;;;;7.28;4.70;;;;;;;-3.76;85.88;102177.69;7397710;19;20073;-67
2024/01/21 07:41:50;;;;;;;7.70;4.80;;;;;;;-3.71;86.78;102177.97;7395420;19;20545;-68
2024/01/21 07:44:19;;;;;;;6.70;4.18;;;;;;;-3.66;88.13;102181.69;7395296;19;20080;-67
2024/01/21 07:46:50;;;;;;;7.10;4.07;;;;;;;-3.65;86.79;102179.22;7397135;19;20465;-68
2024/01/21 07:49:19;;;;;;;8.40;4.35;;;;;;;-3.58;87.78;102185.59;7396641;19;20013;-68
2024/01/21 07:51:47;;;;;;;7.68;4.10;;;;;;;-3.59;88.69;102181.25;7397222;19;20007;-68
2024/01/21 07:54:16;;;;;;;7.85;4.22;;;;;;;-3.52;86.57;102175.69;7394818;19;20015;-68
2024/01/21 07:56:44;;;;;;;6.30;4.07;;;;;;;-3.49;87.58;102173.31;7397022;19;20010;-69
2024/01/21 07:59:13;;;;;;;7.47;4.68;;;;;;;-3.47;88.47;102158.88;7396504;19;20374;-68
2024/01/21 08:01:41;;;;;;;7.05;4.22;;;;;;;-3.45;89.80;102165.00;7395118;19;20032;-68
2024/01/21 08:04:12;;;;;;;5.50;4.47;;;;;;;-3.44;90.18;102166.78;7395746;19;20091;-68
2024/01/21 08:06:41;;;;;;;7.05;4.88;;;;;;;-3.39;90.17;102158.44;7396835;19;20433;-69
2024/01/21 08:09:10;;;;;;;5.72;4.57;;;;;;;-3.37;89.76;102156.88;7396767;19;20014;-69
2024/01/21 08:11:38;;;;;;;59.35;29.60;;;;;;;-3.35;89.84;102153.59;7394687;19;20034;-69
2024/01/21 08:14:07;;;;;;;12.07;6.55;;;;;;;-3.32;89.85;102160.59;7394457;19;20007;-69
2024/01/21 08:16:35;;;;;;;8.80;4.90;;;;;;;-3.30;89.39;102151.28;7396316;19;20410;-68
2024/01/21 08:19:04;;;;;;;7.00;5.22;;;;;;;-3.27;90.75;102149.78;7396227;19;20086;-68
2024/01/21 08:21:35;;;;;;;9.18;5.22;;;;;;;-3.23;90.73;102153.41;7395715;19;20423;-68
2024/01/21 08:24:03;;;;;;;11.43;6.25;;;;;;;-3.19;89.15;102152.78;7394240;19;20473;-68
2024/01/21 08:26:32;;;;;;;20.65;10.43;;;;;;;-3.14;87.81;102159.06;7394046;19;20074;-68
2024/01/21 08:29:00;;;;;;;12.55;6.03;;;;;;;-3.08;86.08;102163.66;7395660;19;20066;-68
2024/01/21 08:31:29;;;;;;;13.15;7.10;;;;;;;-3.03;86.46;102161.34;7395422;19;20347;-68
2024/01/21 08:33:57;;;;;;;18.38;8.65;;;;;;;-2.97;84.67;102159.13;7394019;19;20022;-69
2024/01/21 08:36:26;;;;;;;21.17;10.60;;;;;;;-2.93;86.60;102155.94;7395814;19;20022;-68
2024/01/21 08:38:57;;;;;;;21.83;10.40;;;;;;;-2.89;84.64;102152.75;7395613;19;20015;-69
2024/01/21 08:41:31;;;;;;;15.35;7.85;;;;;;;-2.86;78.83;102155.47;7395800;19;20030;-68
2024/01/21 08:44:00;;;;;;;9.65;4.65;;;;;;;-2.80;82.47;102147.25;7394515;19;20082;-68
2024/01/21 08:46:28;;;;;;;43.85;22.08;;;;;;;-2.74;83.30;102136.41;7395277;19;20478;-68
2024/01/21 08:48:57;;;;;;;5.57;4.10;;;;;;;-2.70;83.72;102139.22;7394663;19;20018;-69
2024/01/21 08:51:25;;;;;;;6.85;4.88;;;;;;;-2.64;82.84;102133.56;7395279;19;20089;-68
2024/01/21 08:53:57;;;;;;;12.07;7.47;;;;;;;-2.60;81.15;102127.78;7394331;19;20035;-68
2024/01/21 08:56:26;;;;;;;8.52;5.95;;;;;;;-2.54;82.59;102125.53;7393757;19;20019;-69
2024/01/21 08:58:56;;;;;;;10.13;6.78;;;;;;;-2.47;84.42;102130.19;7395187;19;20014;-68
2024/01/21 09:01:24;;;;;;;9.00;5.97;;;;;;;-2.40;83.55;102122.81;7392944;19;20024;-68
2024/01/21 09:03:59;;;;;;;9.13;5.15;;;;;;;-2.35;82.83;102123.94;7392749;19;20502;-68
2024/01/21 09:06:28;;;;;;;10.30;5.50;;;;;;;-2.30;84.58;102123.41;7394448;19;20503;-68
2024/01/21 09:08:59;;;;;;;7.13;4.85;;;;;;;-2.24;82.96;102124.53;7394843;19;20183;-68
2024/01/21 09:11:27;;;;;;;21.20;12.32;;;;;;;-2.19;83.55;102130.78;7402864;19;20162;-68
2024/01/21 09:13:56;;;;;;;15.88;9.63;;;;;;;-2.15;83.20;102125.91;7400270;19;20030;-67
2024/01/21 09:16:24;;;;;;;14.60;7.65;;;;;;;-2.08;83.15;102126.22;7402119;19;20015;-68
2024/01/21 09:18:52;;;;;;;14.73;6.82;;;;;;;-2.03;82.47;102124.78;7399346;19;20078;-68
2024/01/21 09:21:21;;;;;;;11.43;6.15;;;;;;;-1.99;82.52;102126.69;7399188;19;20078;-69
2024/01/21 09:23:49;;;;;;;7.95;5.10;;;;;;;-1.94;80.89;102132.09;7398594;19;20066;-67
2024/01/21 09:26:20;;;;;;;9.52;6.15;;;;;;;-1.91;82.57;102124.50;7401833;19;20015;-68
2024/01/21 09:28:49;;;;;;;12.90;6.35;;;;;;;-1.86;81.65;102125.63;7401310;19;20546;-68
2024/01/21 09:31:17;;;;;;;9.63;5.30;;;;;;;-1.82;80.36;102122.41;7398730;19;20500;-68
2024/01/21 09:33:46;;;;;;;13.20;6.22;;;;;;;-1.78;80.91;102113.16;7399927;19;20007;-68
2024/01/21 09:36:15;;;;;;;8.93;5.68;;;;;;;-1.77;80.80;102097.78;7401602;19;20415;-68
2024/01/21 09:38:44;;;;;;;7.80;4.45;;;;;;;-1.71;81.53;102110.97;7398823;19;20038;-67
2024/01/21 09:41:34;;;;;;;8.75;5.05;;;;;;;-1.67;75.85;102104.28;7401298;19;20069;-68
2024/01/21 09:44:04;;;;;;;8.70;4.93;;;;;;;-1.63;75.28;102101.09;7399168;19;20070;-68
2024/01/21 09:46:32;;;;;;;9.00;4.88;;;;;;;-1.58;80.37;102106.44;7401369;19;20069;-68
2024/01/21 09:49:03;;;;;;;9.25;5.72;;;;;;;-1.54;79.37;102111.84;7398378;19;20112;-68
2024/01/21 09:51:32;;;;;;;11.48;5.90;;;;;;;-1.48;78.48;102100.94;7400680;19;20472;-68
2024/01/21 09:54:04;;;;;;;7.75;5.13;;;;;;;-1.43;80.79;102094.31;7399122;19;20022;-68
2024/01/21 09:56:37;;;;;;;10.35;6.47;;;;;;;-1.38;74.79;102092.88;7398967;19;20038;-69
2024/01/21 09:59:07;;;;;;;8.35;4.80;;;;;;;-1.32;76.89;102093.16;7401238;19;20014;-69
2024/01/21 10:01:37;;;;;;;9.98;5.25;;;;;;;-1.25;79.77;102090.88;7400442;19;20474;-68
2024/01/21 10:04:06;;;;;;;10.35;5.70;;;;;;;-1.19;80.83;102089.50;7398709;19;20010;-68
2024/01/21 10:06:35;;;;;;;8.90;5.45;;;;;;;-1.12;80.23;102085.53;7398146;19;20074;-68
2024/01/21 10:09:22;;;;;;;7.13;4.82;;;;;;;-1.06;77.57;102077.19;7397784;19;20070;-68
2024/01/21 10:11:56;;;;;;;11.27;5.97;;;;;;;-1.00;80.57;102069.75;7400470;19;20010;-68
2024/01/21 10:14:27;;;;;;;10.82;6.70;;;;;;;-0.96;78.97;102063.97;7397973;19;20070;-69
2024/01/21 10:16:56;;;;;;;7.63;5.57;;;;;;;-0.93;76.17;102046.03;7400370;19;20548;-69
2024/01/21 10:19:28;;;;;;;8.25;4.90;;;;;;;-0.90;77.44;102046.19;7400288;19;20017;-69
2024/01/21 10:22:10;;;;;;;8.70;4.82;;;;;;;-0.86;70.79;102058.41;7399722;19;20015;-69
2024/01/21 10:24:42;;;;;;;9.27;5.57;;;;;;;-0.79;77.96;102045.81;7397722;19;20022;-69
2024/01/21 10:27:15;;;;;;;10.02;5.57;;;;;;;-0.76;77.54;102051.97;7399940;19;20074;-68
2024/01/21 10:29:45;;;;;;;8.90;5.03;;;;;;;-0.71;76.50;102044.44;7399276;19;20381;-69
2024/01/21 10:32:15;;;;;;;8.65;5.78;;;;;;;-0.67;74.82;102036.03;7399228;19;20071;-69
2024/01/21 10:34:46;;;;;;;11.18;5.55;;;;;;;-0.64;75.19;102023.31;7397282;19;20035;-69
2024/01/21 10:37:17;;;;;;;8.63;5.18;;;;;;;-0.61;75.48;102022.56;7400107;19;20078;-69
2024/01/21 10:39:47;;;;;;;7.28;5.05;;;;;;;-0.60;77.44;102016.59;7399721;19;20434;-69
2024/01/21 10:42:19;;;;;;;9.27;5.10;;;;;;;-0.56;75.16;102021.94;7399510;19;20010;-69
2024/01/21 10:44:49;;;;;;;7.20;5.10;;;;;;;-0.50;76.07;102016.19;7399807;19;20006;-68
2024/01/21 10:47:20;;;;;;;10.98;6.03;;;;;;;-0.46;75.94;102019.78;7399586;19;20029;-69
2024/01/21 10:49:51;;;;;;;9.88;6.30;;;;;;;-0.42;72.91;102029.41;7398304;19;20432;-69
2024/01/21 10:52:21;;;;;;;9.73;6.20;;;;;;;-0.40;76.42;102026.09;7396978;19;20018;-67
2024/01/21 10:54:50;;;;;;;10.35;5.55;;;;;;;-0.36;74.27;102040.00;7395940;19;20090;-68
2024/01/21 10:57:21;;;;;;;7.78;5.00;;;;;;;-0.36;73.62;102029.69;7398566;19;20078;-69
2024/01/21 10:59:50;;;;;;;7.28;5.22;;;;;;;-0.33;76.78;102037.53;7399287;19;20018;-68
2024/01/21 11:02:19;;;;;;;7.30;5.00;;;;;;;-0.30;73.73;102029.94;7399058;19;20015;-68
2024/01/21 11:04:47;;;;;;;8.15;5.00;;;;;;;-0.30;73.32;102024.78;7398209;19;20027;-68
2024/01/21 11:07:19;;;;;;;8.65;5.50;;;;;;;-0.30;74.06;102019.63;7396078;19;20553;-70
2024/01/21 11:09:49;;;;;;;9.63;5.25;;;;;;;-0.29;72.52;102005.03;7398987;19;20074;-67
2024/01/21 11:12:18;;;;;;;8.05;5.82;;;;;;;-0.29;75.40;102005.03;7398089;19;20018;-66
2024/01/21 11:14:49;;;;;;;9.85;5.50;;;;;;;-0.29;72.84;102002.44;7398430;19;20018;-68
2024/01/21 11:17:19;;;;;;;10.55;6.68;;;;;;;-0.30;74.33;102009.31;7396940;19;20066;-69
2024/01/21 11:19:53;;;;;;;10.00;5.60;;;;;;;-0.25;75.45;102006.91;7396339;19;20374;-69
2024/01/21 11:22:25;;;;;;;8.60;4.97;;;;;;;-0.15;76.77;101996.19;7399144;19;20062;-68
2024/01/21 11:24:55;;;;;;;6.25;4.70;;;;;;;0.04;75.88;101990.13;7398145;19;20027;-69
2024/01/21 11:27:25;;;;;;;8.68;5.20;;;;;;;0.10;73.56;102000.69;7397607;19;20017;-68
2024/01/21 11:29:57;;;;;;;10.82;5.68;;;;;;;0.15;69.40;102011.19;7396461;19;20549;-68